sensor_id;sensor_type;location;lat;lon;timestamp;temperature;humidity
52543;DHT22;38449;52.696;6.186;2023-03-01T00:01:59;1.40;99.90
52543;DHT22;38449;52.696;6.186;2023-03-01T00:04:25;1.40;99.90
52543;DHT22;38449;52.696;6.186;2023-03-01T00:06:51;1.40;99.90
52543;DHT22;38449;52.696;6.186;2023-03-01T00:09:17;1.40;99.90
52543;DHT22;38449;52.696;6.186;2023-03-01T00:11:43;1.30;99.90
52543;DHT22;38449;52.696;6.186;2023-03-01T00:14:09;1.40;99.90
52543;DHT22;38449;52.696;6.186;2023-03-01T00:16:36;1.40;99.90
52543;DHT22;38449;52.696;6.186;2023-03-01T00:19:05;1.30;99.90
52543;DHT22;38449;52.696;6.186;2023-03-01T00:21:31;1.30;99.90
52543;DHT22;38449;52.696;6.186;2023-03-01T00:23:57;1.30;99.90
52543;DHT22;38449;52.696;6.186;2023-03-01T00:26:24;1.30;99.90
52543;DHT22;38449;52.696;6.186;2023-03-01T00:28:50;1.10;99.90
52543;DHT22;38449;52.696;6.186;2023-03-01T00:31:18;1.20;99.90
52543;DHT22;38449;52.696;6.186;2023-03-01T00:33:44;1.10;99.90
52543;DHT22;38449;52.696;6.186;2023-03-01T00:36:12;1.10;99.90
52543;DHT22;38449;52.696;6.186;2023-03-01T00:38:39;1.10;99.90
52543;DHT22;38449;52.696;6.186;2023-03-01T00:41:06;1.10;99.90
52543;DHT22;38449;52.696;6.186;2023-03-01T00:43:32;1.00;99.90
52543;DHT22;38449;52.696;6.186;2023-03-01T00:46:07;0.90;99.90
52543;DHT22;38449;52.696;6.186;2023-03-01T00:48:33;0.90;99.90
52543;DHT22;38449;52.696;6.186;2023-03-01T00:53:35;0.80;99.90
52543;DHT22;38449;52.696;6.186;2023-03-01T00:56:02;0.80;99.90
52543;DHT22;38449;52.696;6.186;2023-03-01T00:58:29;0.80;99.90
52543;DHT22;38449;52.696;6.186;2023-03-01T01:00:55;0.70;99.90
52543;DHT22;38449;52.696;6.186;2023-03-01T01:03:22;0.70;99.90
52543;DHT22;38449;52.696;6.186;2023-03-01T01:05:49;0.70;99.90
52543;DHT22;38449;52.696;6.186;2023-03-01T01:08:15;0.70;99.90
52543;DHT22;38449;52.696;6.186;2023-03-01T01:10:43;0.70;99.90
52543;DHT22;38449;52.696;6.186;2023-03-01T01:13:09;0.80;99.90
52543;DHT22;38449;52.696;6.186;2023-03-01T01:15:35;0.70;99.90
52543;DHT22;38449;52.696;6.186;2023-03-01T01:18:01;0.70;99.90
52543;DHT22;38449;52.696;6.186;2023-03-01T01:20:27;0.70;99.90
52543;DHT22;38449;52.696;6.186;2023-03-01T01:22:54;0.70;99.90
52543;DHT22;38449;52.696;6.186;2023-03-01T01:25:20;0.70;99.90
52543;DHT22;38449;52.696;6.186;2023-03-01T01:27:46;0.70;99.90
52543;DHT22;38449;52.696;6.186;2023-03-01T01:30:12;0.60;99.90
52543;DHT22;38449;52.696;6.186;2023-03-01T01:32:39;0.70;99.90
52543;DHT22;38449;52.696;6.186;2023-03-01T01:35:05;0.60;99.90
52543;DHT22;38449;52.696;6.186;2023-03-01T01:37:31;0.60;99.90
52543;DHT22;38449;52.696;6.186;2023-03-01T01:39:59;0.60;99.90
52543;DHT22;38449;52.696;6.186;2023-03-01T01:42:26;0.60;99.90
52543;DHT22;38449;52.696;6.186;2023-03-01T01:47:37;0.50;99.90
52543;DHT22;38449;52.696;6.186;2023-03-01T01:50:03;0.50;99.90
52543;DHT22;38449;52.696;6.186;2023-03-01T01:52:31;0.50;99.90
52543;DHT22;38449;52.696;6.186;2023-03-01T01:55:04;0.50;99.90
52543;DHT22;38449;52.696;6.186;2023-03-01T01:57:33;0.50;99.90
52543;DHT22;38449;52.696;6.186;2023-03-01T02:00:13;0.50;99.90
52543;DHT22;38449;52.696;6.186;2023-03-01T02:02:39;0.40;99.90
52543;DHT22;38449;52.696;6.186;2023-03-01T02:05:24;0.40;99.90
52543;DHT22;38449;52.696;6.186;2023-03-01T02:07:52;0.40;99.90
52543;DHT22;38449;52.696;6.186;2023-03-01T02:10:18;0.40;99.90
52543;DHT22;38449;52.696;6.186;2023-03-01T02:12:45;0.40;99.90
52543;DHT22;38449;52.696;6.186;2023-03-01T02:15:11;0.40;99.90
52543;DHT22;38449;52.696;6.186;2023-03-01T02:17:37;0.40;99.90
52543;DHT22;38449;52.696;6.186;2023-03-01T02:22:34;0.40;99.90
52543;DHT22;38449;52.696;6.186;2023-03-01T02:25:12;0.40;99.90
52543;DHT22;38449;52.696;6.186;2023-03-01T02:27:49;0.30;99.90
52543;DHT22;38449;52.696;6.186;2023-03-01T02:30:18;0.30;99.90
52543;DHT22;38449;52.696;6.186;2023-03-01T02:32:44;0.40;99.90
52543;DHT22;38449;52.696;6.186;2023-03-01T02:35:12;0.40;99.90
52543;DHT22;38449;52.696;6.186;2023-03-01T02:37:40;0.40;99.90
52543;DHT22;38449;52.696;6.186;2023-03-01T02:40:08;0.40;99.90
52543;DHT22;38449;52.696;6.186;2023-03-01T02:42:40;0.40;99.90
52543;DHT22;38449;52.696;6.186;2023-03-01T02:45:10;0.40;99.90
52543;DHT22;38449;52.696;6.186;2023-03-01T02:47:36;0.40;99.90
52543;DHT22;38449;52.696;6.186;2023-03-01T02:50:02;0.40;99.90
52543;DHT22;38449;52.696;6.186;2023-03-01T02:55:06;0.40;99.90
52543;DHT22;38449;52.696;6.186;2023-03-01T02:57:34;0.40;99.90
52543;DHT22;38449;52.696;6.186;2023-03-01T03:00:03;0.30;99.90
52543;DHT22;38449;52.696;6.186;2023-03-01T03:02:33;0.30;99.90
52543;DHT22;38449;52.696;6.186;2023-03-01T03:05:09;0.20;99.90
52543;DHT22;38449;52.696;6.186;2023-03-01T03:07:36;0.20;99.90
52543;DHT22;38449;52.696;6.186;2023-03-01T03:10:03;0.20;99.90
52543;DHT22;38449;52.696;6.186;2023-03-01T03:12:30;0.20;99.90
52543;DHT22;38449;52.696;6.186;2023-03-01T03:14:56;0.20;99.90
52543;DHT22;38449;52.696;6.186;2023-03-01T03:17:23;0.10;99.90
52543;DHT22;38449;52.696;6.186;2023-03-01T03:19:49;0.00;99.90
52543;DHT22;38449;52.696;6.186;2023-03-01T03:22:15;0.00;99.90
52543;DHT22;38449;52.696;6.186;2023-03-01T03:24:41;-0.20;99.90
52543;DHT22;38449;52.696;6.186;2023-03-01T03:27:07;-0.20;99.90
52543;DHT22;38449;52.696;6.186;2023-03-01T03:29:34;-0.20;99.90
52543;DHT22;38449;52.696;6.186;2023-03-01T03:32:00;-0.10;99.90
52543;DHT22;38449;52.696;6.186;2023-03-01T03:34:26;-0.10;99.90
52543;DHT22;38449;52.696;6.186;2023-03-01T03:36:53;-0.20;99.90
52543;DHT22;38449;52.696;6.186;2023-03-01T03:39:25;-0.20;99.90
52543;DHT22;38449;52.696;6.186;2023-03-01T03:41:53;-0.20;99.90
52543;DHT22;38449;52.696;6.186;2023-03-01T03:44:19;-0.30;99.90
52543;DHT22;38449;52.696;6.186;2023-03-01T03:46:45;-0.40;99.90
52543;DHT22;38449;52.696;6.186;2023-03-01T03:49:12;-0.50;99.90
52543;DHT22;38449;52.696;6.186;2023-03-01T03:51:38;-0.50;99.90
52543;DHT22;38449;52.696;6.186;2023-03-01T03:54:04;-0.50;99.90
52543;DHT22;38449;52.696;6.186;2023-03-01T03:56:30;-0.60;99.90
52543;DHT22;38449;52.696;6.186;2023-03-01T03:58:56;-0.70;99.90
52543;DHT22;38449;52.696;6.186;2023-03-01T04:01:22;-0.90;99.90
52543;DHT22;38449;52.696;6.186;2023-03-01T04:03:48;-1.00;99.90
52543;DHT22;38449;52.696;6.186;2023-03-01T04:06:20;-1.00;99.90
52543;DHT22;38449;52.696;6.186;2023-03-01T04:08:46;-1.00;99.90
52543;DHT22;38449;52.696;6.186;2023-03-01T04:11:12;-1.10;99.90
52543;DHT22;38449;52.696;6.186;2023-03-01T04:13:55;-1.30;99.90
52543;DHT22;38449;52.696;6.186;2023-03-01T04:16:21;-1.40;99.90
52543;DHT22;38449;52.696;6.186;2023-03-01T04:18:48;-1.40;99.90
52543;DHT22;38449;52.696;6.186;2023-03-01T04:21:14;-1.40;99.90
52543;DHT22;38449;52.696;6.186;2023-03-01T04:23:40;-1.40;99.90
52543;DHT22;38449;52.696;6.186;2023-03-01T04:26:07;-1.60;99.90
52543;DHT22;38449;52.696;6.186;2023-03-01T04:28:34;-1.60;99.90
52543;DHT22;38449;52.696;6.186;2023-03-01T04:31:03;-1.50;99.90
52543;DHT22;38449;52.696;6.186;2023-03-01T04:33:42;-1.50;99.90
52543;DHT22;38449;52.696;6.186;2023-03-01T04:36:09;-1.60;99.90
52543;DHT22;38449;52.696;6.186;2023-03-01T04:38:36;-1.60;99.90
52543;DHT22;38449;52.696;6.186;2023-03-01T04:41:06;-1.60;99.90
52543;DHT22;38449;52.696;6.186;2023-03-01T04:43:33;-1.50;99.90
52543;DHT22;38449;52.696;6.186;2023-03-01T04:46:00;-1.60;99.90
52543;DHT22;38449;52.696;6.186;2023-03-01T04:48:29;-1.50;99.90
52543;DHT22;38449;52.696;6.186;2023-03-01T04:50:55;-1.50;99.90
52543;DHT22;38449;52.696;6.186;2023-03-01T04:53:21;-1.40;99.90
52543;DHT22;38449;52.696;6.186;2023-03-01T04:55:47;-1.40;99.90
52543;DHT22;38449;52.696;6.186;2023-03-01T04:58:13;-1.30;99.90
52543;DHT22;38449;52.696;6.186;2023-03-01T05:00:39;-1.30;99.90
52543;DHT22;38449;52.696;6.186;2023-03-01T05:03:06;-1.30;99.90
52543;DHT22;38449;52.696;6.186;2023-03-01T05:05:36;-1.30;99.90
52543;DHT22;38449;52.696;6.186;2023-03-01T05:08:04;-1.30;99.90
52543;DHT22;38449;52.696;6.186;2023-03-01T05:10:30;-1.30;99.90
52543;DHT22;38449;52.696;6.186;2023-03-01T05:12:57;-1.30;99.90
52543;DHT22;38449;52.696;6.186;2023-03-01T05:15:24;-1.30;99.90
52543;DHT22;38449;52.696;6.186;2023-03-01T05:17:57;-1.30;99.90
52543;DHT22;38449;52.696;6.186;2023-03-01T05:20:27;-1.30;99.90
52543;DHT22;38449;52.696;6.186;2023-03-01T05:22:55;-1.30;99.90
52543;DHT22;38449;52.696;6.186;2023-03-01T05:25:21;-1.30;99.90
52543;DHT22;38449;52.696;6.186;2023-03-01T05:27:47;-1.30;99.90
52543;DHT22;38449;52.696;6.186;2023-03-01T05:30:14;-1.30;99.90
52543;DHT22;38449;52.696;6.186;2023-03-01T05:32:41;-1.40;99.90
52543;DHT22;38449;52.696;6.186;2023-03-01T05:35:09;-1.40;99.90
52543;DHT22;38449;52.696;6.186;2023-03-01T05:37:40;-1.40;99.90
52543;DHT22;38449;52.696;6.186;2023-03-01T05:40:08;-1.40;99.90
52543;DHT22;38449;52.696;6.186;2023-03-01T05:42:42;-1.40;99.90
52543;DHT22;38449;52.696;6.186;2023-03-01T05:45:08;-1.40;99.90
52543;DHT22;38449;52.696;6.186;2023-03-01T05:47:35;-1.40;99.90
52543;DHT22;38449;52.696;6.186;2023-03-01T05:50:01;-1.40;99.90
52543;DHT22;38449;52.696;6.186;2023-03-01T05:52:28;-1.40;99.90
52543;DHT22;38449;52.696;6.186;2023-03-01T05:54:54;-1.50;99.90
52543;DHT22;38449;52.696;6.186;2023-03-01T05:57:21;-1.40;99.90
52543;DHT22;38449;52.696;6.186;2023-03-01T05:59:47;-1.40;99.90
52543;DHT22;38449;52.696;6.186;2023-03-01T06:02:13;-1.40;99.90
52543;DHT22;38449;52.696;6.186;2023-03-01T06:04:39;-1.40;99.90
52543;DHT22;38449;52.696;6.186;2023-03-01T06:07:05;-1.40;99.90
52543;DHT22;38449;52.696;6.186;2023-03-01T06:09:31;-1.40;99.90
52543;DHT22;38449;52.696;6.186;2023-03-01T06:11:57;-1.40;99.90
52543;DHT22;38449;52.696;6.186;2023-03-01T06:14:24;-1.40;99.90
52543;DHT22;38449;52.696;6.186;2023-03-01T06:16:50;-1.40;99.90
52543;DHT22;38449;52.696;6.186;2023-03-01T06:19:16;-1.40;99.90
52543;DHT22;38449;52.696;6.186;2023-03-01T06:21:42;-1.30;99.90
52543;DHT22;38449;52.696;6.186;2023-03-01T06:24:08;-1.40;99.90
52543;DHT22;38449;52.696;6.186;2023-03-01T06:26:35;-1.40;99.90
52543;DHT22;38449;52.696;6.186;2023-03-01T06:29:01;-1.40;99.90
52543;DHT22;38449;52.696;6.186;2023-03-01T06:31:27;-1.40;99.90
52543;DHT22;38449;52.696;6.186;2023-03-01T06:33:53;-1.40;99.90
52543;DHT22;38449;52.696;6.186;2023-03-01T06:36:19;-1.40;99.90
52543;DHT22;38449;52.696;6.186;2023-03-01T06:38:47;-1.40;99.90
52543;DHT22;38449;52.696;6.186;2023-03-01T06:41:13;-1.40;99.90
52543;DHT22;38449;52.696;6.186;2023-03-01T06:43:40;-1.40;99.90
52543;DHT22;38449;52.696;6.186;2023-03-01T06:46:06;-1.40;99.90
52543;DHT22;38449;52.696;6.186;2023-03-01T06:48:33;-1.30;99.90
52543;DHT22;38449;52.696;6.186;2023-03-01T06:50:59;-1.40;99.90
52543;DHT22;38449;52.696;6.186;2023-03-01T06:53:27;-1.40;99.90
52543;DHT22;38449;52.696;6.186;2023-03-01T06:55:54;-1.30;99.90
52543;DHT22;38449;52.696;6.186;2023-03-01T06:58:20;-1.30;99.90
52543;DHT22;38449;52.696;6.186;2023-03-01T07:00:46;-1.20;99.90
52543;DHT22;38449;52.696;6.186;2023-03-01T07:03:12;-1.30;99.90
52543;DHT22;38449;52.696;6.186;2023-03-01T07:05:38;-1.30;99.90
52543;DHT22;38449;52.696;6.186;2023-03-01T07:08:05;-1.30;99.90
52543;DHT22;38449;52.696;6.186;2023-03-01T07:10:31;-1.30;99.90
52543;DHT22;38449;52.696;6.186;2023-03-01T07:12:57;-1.20;99.90
52543;DHT22;38449;52.696;6.186;2023-03-01T07:15:25;-1.20;99.90
52543;DHT22;38449;52.696;6.186;2023-03-01T07:17:51;-1.20;99.90
52543;DHT22;38449;52.696;6.186;2023-03-01T07:20:18;-1.20;99.90
52543;DHT22;38449;52.696;6.186;2023-03-01T07:22:44;-1.10;99.90
52543;DHT22;38449;52.696;6.186;2023-03-01T07:25:10;-1.10;99.90
52543;DHT22;38449;52.696;6.186;2023-03-01T07:27:37;-0.90;99.90
52543;DHT22;38449;52.696;6.186;2023-03-01T07:30:03;-0.90;99.90
52543;DHT22;38449;52.696;6.186;2023-03-01T07:32:29;-1.20;99.90
52543;DHT22;38449;52.696;6.186;2023-03-01T07:34:55;-0.70;99.90
52543;DHT22;38449;52.696;6.186;2023-03-01T07:37:21;-0.50;99.90
52543;DHT22;38449;52.696;6.186;2023-03-01T07:39:48;-0.40;99.90
52543;DHT22;38449;52.696;6.186;2023-03-01T07:42:14;-0.30;99.90
52543;DHT22;38449;52.696;6.186;2023-03-01T07:44:40;-0.20;99.90
52543;DHT22;38449;52.696;6.186;2023-03-01T07:47:06;0.00;99.90
52543;DHT22;38449;52.696;6.186;2023-03-01T07:49:32;0.10;99.90
52543;DHT22;38449;52.696;6.186;2023-03-01T07:51:58;0.20;99.90
52543;DHT22;38449;52.696;6.186;2023-03-01T07:54:25;0.30;99.90
52543;DHT22;38449;52.696;6.186;2023-03-01T07:56:52;0.40;99.90
52543;DHT22;38449;52.696;6.186;2023-03-01T07:59:18;0.50;99.90
52543;DHT22;38449;52.696;6.186;2023-03-01T08:01:44;0.70;99.90
52543;DHT22;38449;52.696;6.186;2023-03-01T08:04:10;0.70;99.90
52543;DHT22;38449;52.696;6.186;2023-03-01T08:06:36;0.80;99.90
52543;DHT22;38449;52.696;6.186;2023-03-01T08:09:03;0.90;99.90
52543;DHT22;38449;52.696;6.186;2023-03-01T08:11:29;1.00;99.90
52543;DHT22;38449;52.696;6.186;2023-03-01T08:13:55;1.10;99.90
52543;DHT22;38449;52.696;6.186;2023-03-01T08:16:22;1.20;99.90
52543;DHT22;38449;52.696;6.186;2023-03-01T08:18:48;1.30;99.90
52543;DHT22;38449;52.696;6.186;2023-03-01T08:21:15;1.40;99.90
52543;DHT22;38449;52.696;6.186;2023-03-01T08:23:42;1.50;99.90
52543;DHT22;38449;52.696;6.186;2023-03-01T08:26:09;1.60;99.90
52543;DHT22;38449;52.696;6.186;2023-03-01T08:28:36;1.70;99.90
52543;DHT22;38449;52.696;6.186;2023-03-01T08:31:02;1.80;99.90
52543;DHT22;38449;52.696;6.186;2023-03-01T08:33:29;1.90;99.90
52543;DHT22;38449;52.696;6.186;2023-03-01T08:36:02;1.90;99.90
52543;DHT22;38449;52.696;6.186;2023-03-01T08:38:28;2.00;99.90
52543;DHT22;38449;52.696;6.186;2023-03-01T08:40:54;2.10;99.90
52543;DHT22;38449;52.696;6.186;2023-03-01T08:43:20;2.30;99.90
52543;DHT22;38449;52.696;6.186;2023-03-01T08:45:48;2.50;99.90
52543;DHT22;38449;52.696;6.186;2023-03-01T08:48:14;2.60;99.90
52543;DHT22;38449;52.696;6.186;2023-03-01T08:50:40;2.70;99.90
52543;DHT22;38449;52.696;6.186;2023-03-01T08:53:07;2.80;99.90
52543;DHT22;38449;52.696;6.186;2023-03-01T08:55:33;2.90;99.90
52543;DHT22;38449;52.696;6.186;2023-03-01T08:57:59;2.90;99.90
52543;DHT22;38449;52.696;6.186;2023-03-01T09:00:25;3.00;99.90
52543;DHT22;38449;52.696;6.186;2023-03-01T09:02:51;3.10;99.90
52543;DHT22;38449;52.696;6.186;2023-03-01T09:05:18;3.20;99.90
52543;DHT22;38449;52.696;6.186;2023-03-01T09:07:44;3.30;99.90
52543;DHT22;38449;52.696;6.186;2023-03-01T09:10:10;3.40;99.90
52543;DHT22;38449;52.696;6.186;2023-03-01T09:12:36;3.40;99.90
52543;DHT22;38449;52.696;6.186;2023-03-01T09:15:03;3.60;99.90
52543;DHT22;38449;52.696;6.186;2023-03-01T09:17:29;3.60;99.90
52543;DHT22;38449;52.696;6.186;2023-03-01T09:19:55;3.70;99.90
52543;DHT22;38449;52.696;6.186;2023-03-01T09:22:21;3.90;99.90
52543;DHT22;38449;52.696;6.186;2023-03-01T09:24:48;3.90;99.90
52543;DHT22;38449;52.696;6.186;2023-03-01T09:27:14;4.00;99.90
52543;DHT22;38449;52.696;6.186;2023-03-01T09:29:40;4.20;99.90
52543;DHT22;38449;52.696;6.186;2023-03-01T09:32:06;4.20;99.90
52543;DHT22;38449;52.696;6.186;2023-03-01T09:34:34;4.40;99.90
52543;DHT22;38449;52.696;6.186;2023-03-01T09:37:20;4.50;99.90
52543;DHT22;38449;52.696;6.186;2023-03-01T09:39:46;4.70;99.90
52543;DHT22;38449;52.696;6.186;2023-03-01T09:42:12;4.80;99.90
52543;DHT22;38449;52.696;6.186;2023-03-01T09:44:49;5.00;99.90
52543;DHT22;38449;52.696;6.186;2023-03-01T09:47:18;5.10;99.90
52543;DHT22;38449;52.696;6.186;2023-03-01T09:49:45;5.20;99.90
52543;DHT22;38449;52.696;6.186;2023-03-01T09:52:23;5.30;99.90
52543;DHT22;38449;52.696;6.186;2023-03-01T09:54:53;5.40;99.90
52543;DHT22;38449;52.696;6.186;2023-03-01T10:04:51;5.70;99.90
52543;DHT22;38449;52.696;6.186;2023-03-01T10:10:05;5.80;99.90
52543;DHT22;38449;52.696;6.186;2023-03-01T10:12:35;5.90;99.90
52543;DHT22;38449;52.696;6.186;2023-03-01T10:17:39;6.00;99.90
52543;DHT22;38449;52.696;6.186;2023-03-01T10:22:43;6.00;99.90
52543;DHT22;38449;52.696;6.186;2023-03-01T10:25:14;6.10;99.90
52543;DHT22;38449;52.696;6.186;2023-03-01T10:27:54;6.20;99.90
52543;DHT22;38449;52.696;6.186;2023-03-01T10:30:34;6.20;99.90
52543;DHT22;38449;52.696;6.186;2023-03-01T10:33:02;6.30;99.90
52543;DHT22;38449;52.696;6.186;2023-03-01T10:35:34;6.20;99.90
52543;DHT22;38449;52.696;6.186;2023-03-01T10:38:03;6.30;99.90
52543;DHT22;38449;52.696;6.186;2023-03-01T10:40:29;6.50;99.90
52543;DHT22;38449;52.696;6.186;2023-03-01T10:42:59;6.60;99.90
52543;DHT22;38449;52.696;6.186;2023-03-01T10:48:03;6.60;99.90
52543;DHT22;38449;52.696;6.186;2023-03-01T10:50:29;6.70;99.90
52543;DHT22;38449;52.696;6.186;2023-03-01T10:52:58;6.70;99.90
52543;DHT22;38449;52.696;6.186;2023-03-01T10:55:33;6.70;99.90
52543;DHT22;38449;52.696;6.186;2023-03-01T10:58:08;6.70;99.90
52543;DHT22;38449;52.696;6.186;2023-03-01T11:00:45;6.80;99.90
52543;DHT22;38449;52.696;6.186;2023-03-01T11:03:13;6.80;99.90
52543;DHT22;38449;52.696;6.186;2023-03-01T11:05:50;6.80;99.90
52543;DHT22;38449;52.696;6.186;2023-03-01T11:08:28;6.90;99.90
52543;DHT22;38449;52.696;6.186;2023-03-01T11:11:03;6.90;99.90
52543;DHT22;38449;52.696;6.186;2023-03-01T11:13:29;6.90;99.90
52543;DHT22;38449;52.696;6.186;2023-03-01T11:16:00;7.00;99.90
52543;DHT22;38449;52.696;6.186;2023-03-01T11:18:27;7.20;99.90
52543;DHT22;38449;52.696;6.186;2023-03-01T11:20:54;7.00;99.90
52543;DHT22;38449;52.696;6.186;2023-03-01T11:23:21;6.90;99.90
52543;DHT22;38449;52.696;6.186;2023-03-01T11:25:53;7.10;99.90
52543;DHT22;38449;52.696;6.186;2023-03-01T11:28:20;7.20;99.90
52543;DHT22;38449;52.696;6.186;2023-03-01T11:36:05;7.20;99.90
52543;DHT22;38449;52.696;6.186;2023-03-01T11:38:34;7.30;99.90
52543;DHT22;38449;52.696;6.186;2023-03-01T11:43:33;7.30;99.90
52543;DHT22;38449;52.696;6.186;2023-03-01T11:51:01;7.50;99.90
52543;DHT22;38449;52.696;6.186;2023-03-01T11:56:15;7.30;99.90
52543;DHT22;38449;52.696;6.186;2023-03-01T11:58:54;7.50;99.90
52543;DHT22;38449;52.696;6.186;2023-03-01T12:09:17;7.50;99.90
52543;DHT22;38449;52.696;6.186;2023-03-01T12:12:02;7.60;99.90
52543;DHT22;38449;52.696;6.186;2023-03-01T12:22:29;7.50;99.90
52543;DHT22;38449;52.696;6.186;2023-03-01T12:32:57;7.60;99.90
52543;DHT22;38449;52.696;6.186;2023-03-01T12:35:31;7.80;99.90
52543;DHT22;38449;52.696;6.186;2023-03-01T12:43:42;7.60;99.90
52543;DHT22;38449;52.696;6.186;2023-03-01T12:46:14;7.70;99.60
52543;DHT22;38449;52.696;6.186;2023-03-01T12:51:11;7.70;99.90
52543;DHT22;38449;52.696;6.186;2023-03-01T12:53:40;7.70;99.90
52543;DHT22;38449;52.696;6.186;2023-03-01T12:56:11;7.60;99.80
52543;DHT22;38449;52.696;6.186;2023-03-01T12:58:44;7.60;99.30
52543;DHT22;38449;52.696;6.186;2023-03-01T13:03:55;7.50;99.90
52543;DHT22;38449;52.696;6.186;2023-03-01T13:11:56;7.70;99.90
52543;DHT22;38449;52.696;6.186;2023-03-01T13:16:50;7.70;99.90
52543;DHT22;38449;52.696;6.186;2023-03-01T13:19:23;7.80;99.90
52543;DHT22;38449;52.696;6.186;2023-03-01T13:21:51;7.80;99.90
52543;DHT22;38449;52.696;6.186;2023-03-01T13:30:12;7.90;99.90
52543;DHT22;38449;52.696;6.186;2023-03-01T13:32:33;7.90;99.90
52543;DHT22;38449;52.696;6.186;2023-03-01T13:35:03;7.90;99.90
52543;DHT22;38449;52.696;6.186;2023-03-01T13:37:46;7.90;99.90
52543;DHT22;38449;52.696;6.186;2023-03-01T13:42:44;7.80;99.90
52543;DHT22;38449;52.696;6.186;2023-03-01T13:45:22;7.80;99.90
52543;DHT22;38449;52.696;6.186;2023-03-01T13:47:52;7.80;99.90
52543;DHT22;38449;52.696;6.186;2023-03-01T13:50:21;7.70;99.90
52543;DHT22;38449;52.696;6.186;2023-03-01T13:52:55;7.80;99.90
52543;DHT22;38449;52.696;6.186;2023-03-01T13:55:26;7.90;99.90
52543;DHT22;38449;52.696;6.186;2023-03-01T13:57:54;7.90;99.90
52543;DHT22;38449;52.696;6.186;2023-03-01T14:00:25;7.90;99.90
52543;DHT22;38449;52.696;6.186;2023-03-01T14:05:28;7.80;99.90
52543;DHT22;38449;52.696;6.186;2023-03-01T14:07:54;7.80;99.90
52543;DHT22;38449;52.696;6.186;2023-03-01T14:10:21;7.70;99.90
52543;DHT22;38449;52.696;6.186;2023-03-01T14:15:19;7.70;99.90
52543;DHT22;38449;52.696;6.186;2023-03-01T14:20:37;7.70;99.90
52543;DHT22;38449;52.696;6.186;2023-03-01T14:23:09;7.80;99.90
52543;DHT22;38449;52.696;6.186;2023-03-01T14:25:36;7.90;99.90
52543;DHT22;38449;52.696;6.186;2023-03-01T14:30:51;7.70;99.90
52543;DHT22;38449;52.696;6.186;2023-03-01T14:33:19;7.80;99.90
52543;DHT22;38449;52.696;6.186;2023-03-01T14:35:52;7.80;99.90
52543;DHT22;38449;52.696;6.186;2023-03-01T14:38:22;7.80;99.90
52543;DHT22;38449;52.696;6.186;2023-03-01T14:40:50;7.80;99.90
52543;DHT22;38449;52.696;6.186;2023-03-01T14:43:18;7.90;99.90
52543;DHT22;38449;52.696;6.186;2023-03-01T14:45:48;7.90;99.90
52543;DHT22;38449;52.696;6.186;2023-03-01T14:48:15;7.80;99.90
52543;DHT22;38449;52.696;6.186;2023-03-01T14:50:42;7.80;99.90
52543;DHT22;38449;52.696;6.186;2023-03-01T14:53:23;7.90;99.90
52543;DHT22;38449;52.696;6.186;2023-03-01T14:55:50;7.80;99.90
52543;DHT22;38449;52.696;6.186;2023-03-01T14:58:24;7.80;99.90
52543;DHT22;38449;52.696;6.186;2023-03-01T15:00:55;7.70;99.90
52543;DHT22;38449;52.696;6.186;2023-03-01T15:03:26;7.70;99.90
52543;DHT22;38449;52.696;6.186;2023-03-01T15:05:53;7.80;99.90
52543;DHT22;38449;52.696;6.186;2023-03-01T15:08:21;7.70;99.90
52543;DHT22;38449;52.696;6.186;2023-03-01T15:11:05;7.70;99.90
52543;DHT22;38449;52.696;6.186;2023-03-01T15:13:32;7.70;99.90
52543;DHT22;38449;52.696;6.186;2023-03-01T15:16:41;7.70;99.90
52543;DHT22;38449;52.696;6.186;2023-03-01T15:18:55;7.60;99.90
52543;DHT22;38449;52.696;6.186;2023-03-01T15:21:26;7.70;99.90
52543;DHT22;38449;52.696;6.186;2023-03-01T15:24:07;7.70;99.90
52543;DHT22;38449;52.696;6.186;2023-03-01T15:26:39;7.80;99.90
52543;DHT22;38449;52.696;6.186;2023-03-01T15:29:10;7.80;99.90
52543;DHT22;38449;52.696;6.186;2023-03-01T15:31:42;7.70;99.90
52543;DHT22;38449;52.696;6.186;2023-03-01T15:36:51;7.80;99.90
52543;DHT22;38449;52.696;6.186;2023-03-01T15:41:57;7.70;99.90
52543;DHT22;38449;52.696;6.186;2023-03-01T15:44:28;7.80;99.90
52543;DHT22;38449;52.696;6.186;2023-03-01T15:46:54;7.60;99.90
52543;DHT22;38449;52.696;6.186;2023-03-01T15:49:42;7.60;99.90
52543;DHT22;38449;52.696;6.186;2023-03-01T15:52:25;7.50;99.90
52543;DHT22;38449;52.696;6.186;2023-03-01T15:54:56;7.60;99.90
52543;DHT22;38449;52.696;6.186;2023-03-01T15:57:22;7.50;99.90
52543;DHT22;38449;52.696;6.186;2023-03-01T15:59:49;7.50;99.90
52543;DHT22;38449;52.696;6.186;2023-03-01T16:02:15;7.60;99.90
52543;DHT22;38449;52.696;6.186;2023-03-01T16:04:41;7.50;99.90
52543;DHT22;38449;52.696;6.186;2023-03-01T16:07:08;7.50;99.90
52543;DHT22;38449;52.696;6.186;2023-03-01T16:09:35;7.50;99.90
52543;DHT22;38449;52.696;6.186;2023-03-01T16:12:01;7.50;99.90
52543;DHT22;38449;52.696;6.186;2023-03-01T16:14:28;7.40;99.90
52543;DHT22;38449;52.696;6.186;2023-03-01T16:16:54;7.60;99.90
52543;DHT22;38449;52.696;6.186;2023-03-01T16:19:20;7.40;99.90
52543;DHT22;38449;52.696;6.186;2023-03-01T16:21:46;7.30;99.90
52543;DHT22;38449;52.696;6.186;2023-03-01T16:24:14;7.30;99.90
52543;DHT22;38449;52.696;6.186;2023-03-01T16:26:40;7.20;99.90
52543;DHT22;38449;52.696;6.186;2023-03-01T16:29:07;7.20;99.90
52543;DHT22;38449;52.696;6.186;2023-03-01T16:31:34;7.10;99.90
52543;DHT22;38449;52.696;6.186;2023-03-01T16:34:00;7.00;99.90
52543;DHT22;38449;52.696;6.186;2023-03-01T16:36:26;7.10;99.90
52543;DHT22;38449;52.696;6.186;2023-03-01T16:38:54;7.20;99.90
52543;DHT22;38449;52.696;6.186;2023-03-01T16:41:21;7.20;99.90
52543;DHT22;38449;52.696;6.186;2023-03-01T16:43:48;7.10;99.90
52543;DHT22;38449;52.696;6.186;2023-03-01T16:46:15;7.10;99.90
52543;DHT22;38449;52.696;6.186;2023-03-01T16:48:42;7.00;99.90
52543;DHT22;38449;52.696;6.186;2023-03-01T16:51:08;7.10;99.90
52543;DHT22;38449;52.696;6.186;2023-03-01T16:53:35;7.10;99.90
52543;DHT22;38449;52.696;6.186;2023-03-01T16:56:03;7.10;99.90
52543;DHT22;38449;52.696;6.186;2023-03-01T16:58:29;7.20;99.90
52543;DHT22;38449;52.696;6.186;2023-03-01T17:00:55;7.10;99.90
52543;DHT22;38449;52.696;6.186;2023-03-01T17:03:23;7.30;99.90
52543;DHT22;38449;52.696;6.186;2023-03-01T17:05:49;7.10;99.90
52543;DHT22;38449;52.696;6.186;2023-03-01T17:08:15;7.00;99.90
52543;DHT22;38449;52.696;6.186;2023-03-01T17:10:41;6.90;99.90
52543;DHT22;38449;52.696;6.186;2023-03-01T17:13:08;6.80;99.90
52543;DHT22;38449;52.696;6.186;2023-03-01T17:15:37;6.80;99.90
52543;DHT22;38449;52.696;6.186;2023-03-01T17:18:04;6.80;99.90
52543;DHT22;38449;52.696;6.186;2023-03-01T17:20:30;6.60;99.90
52543;DHT22;38449;52.696;6.186;2023-03-01T17:22:56;6.70;99.90
52543;DHT22;38449;52.696;6.186;2023-03-01T17:25:23;6.60;99.90
52543;DHT22;38449;52.696;6.186;2023-03-01T17:27:49;6.50;99.90
52543;DHT22;38449;52.696;6.186;2023-03-01T17:30:16;6.40;99.90
52543;DHT22;38449;52.696;6.186;2023-03-01T17:32:42;6.30;99.90
52543;DHT22;38449;52.696;6.186;2023-03-01T17:35:08;6.20;99.90
52543;DHT22;38449;52.696;6.186;2023-03-01T17:37:37;6.20;99.90
52543;DHT22;38449;52.696;6.186;2023-03-01T17:40:05;6.30;99.90